Time;durP1;ratioP1;P1;durP2;ratioP2;P2;SDS_P1;SDS_P2;PMS_P1;PMS_P2;Temp;Humidity;BMP_temperature;BMP_pressure;BME280_temperature;BME280_humidity;BME280_pressure;Samples;Min_cycle;Max_cycle;Signal;HPM_P1;HPM_P2
2022/03/21 00:00:46;;;;;;;0.00;0.00;;;10.90;99.90;;;;;;5053657;28;20518;-76
2022/03/21 00:03:14;;;;;;;0.00;0.00;;;10.90;99.90;;;;;;5054266;28;20044;-77
2022/03/21 00:05:41;;;;;;;0.00;0.00;;;10.90;99.90;;;;;;5054513;28;20112;-77
2022/03/21 00:08:07;;;;;;;0.10;0.10;;;10.90;99.90;;;;;;5054377;28;20032;-77
2022/03/21 00:10:35;;;;;;;0.00;0.00;;;10.90;99.90;;;;;;5053899;28;20029;-75
2022/03/21 00:13:02;;;;;;;0.00;0.00;;;10.90;99.90;;;;;;5036967;28;20512;-76
2022/03/21 00:15:31;;;;;;;0.00;0.00;;;10.90;99.90;;;;;;5034305;28;20014;-76
2022/03/21 00:17:57;;;;;;;0.10;0.05;;;10.90;99.90;;;;;;5033795;28;20040;-75
2022/03/21 00:20:23;;;;;;;0.00;0.00;;;10.90;99.90;;;;;;5034217;28;20096;-75
2022/03/21 00:22:50;;;;;;;0.00;0.00;;;10.80;99.90;;;;;;5034167;28;20030;-76
2022/03/21 00:25:16;;;;;;;1.58;0.20;;;10.80;99.90;;;;;;5033848;28;20044;-76
2022/03/21 00:27:41;;;;;;;0.00;0.00;;;10.70;99.90;;;;;;5033838;28;20025;-76
2022/03/21 00:30:09;;;;;;;0.00;0.00;;;10.70;99.90;;;;;;5034285;28;20110;-77
2022/03/21 00:32:37;;;;;;;0.25;0.20;;;10.70;99.90;;;;;;5033425;28;20021;-76
2022/03/21 00:35:04;;;;;;;0.00;0.00;;;10.60;99.90;;;;;;5034273;28;20075;-77
2022/03/21 00:37:31;;;;;;;0.00;0.00;;;10.70;99.90;;;;;;5042580;28;20112;-77
2022/03/21 00:39:57;;;;;;;0.00;0.00;;;10.60;99.90;;;;;;5053405;28;20144;-76
2022/03/21 00:42:24;;;;;;;0.20;0.20;;;10.60;99.90;;;;;;5053644;28;20060;-77
2022/03/21 00:44:50;;;;;;;0.03;0.03;;;10.60;99.90;;;;;;5056472;28;20503;-75
2022/03/21 00:47:16;;;;;;;0.10;0.10;;;10.60;99.90;;;;;;5053624;28;20025;-77
2022/03/21 00:49:43;;;;;;;0.00;0.00;;;10.60;99.90;;;;;;5053483;28;20100;-75
2022/03/21 00:52:09;;;;;;;0.00;0.00;;;10.50;99.90;;;;;;5053246;28;20484;-77
2022/03/21 00:54:35;;;;;;;0.00;0.00;;;10.50;99.90;;;;;;5053106;28;20128;-76
2022/03/21 00:57:01;;;;;;;0.08;0.08;;;10.50;99.90;;;;;;5053225;28;20025;-76
2022/03/21 00:59:26;;;;;;;0.00;0.00;;;10.50;99.90;;;;;;5053326;28;20021;-78
2022/03/21 01:01:52;;;;;;;0.80;0.80;;;10.50;99.90;;;;;;5054840;28;20055;-76
2022/03/21 01:04:18;;;;;;;0.00;0.00;;;10.40;99.90;;;;;;5053422;28;20083;-76
2022/03/21 01:06:44;;;;;;;0.00;0.00;;;10.40;99.90;;;;;;5053143;28;20028;-77
2022/03/21 01:09:12;;;;;;;0.00;0.00;;;10.40;99.90;;;;;;5052828;28;20033;-77
2022/03/21 01:11:38;;;;;;;0.00;0.00;;;10.30;99.90;;;;;;5052807;28;20032;-76
2022/03/21 01:14:05;;;;;;;0.00;0.00;;;10.30;99.90;;;;;;5052468;28;20029;-77
2022/03/21 01:16:30;;;;;;;0.00;0.00;;;10.20;99.90;;;;;;5053129;28;20100;-77
2022/03/21 01:18:56;;;;;;;0.00;0.00;;;10.20;99.90;;;;;;5052561;28;20113;-76
2022/03/21 01:21:22;;;;;;;0.00;0.00;;;10.10;99.90;;;;;;5053339;28;20036;-75
2022/03/21 01:23:47;;;;;;;0.00;0.00;;;10.00;99.90;;;;;;5054868;28;20385;-77
2022/03/21 01:26:13;;;;;;;0.10;0.10;;;10.00;99.90;;;;;;5052758;28;20036;-75
2022/03/21 01:28:39;;;;;;;0.32;0.20;;;10.00;99.90;;;;;;5052603;28;20035;-75
2022/03/21 01:31:04;;;;;;;0.00;0.00;;;10.10;99.90;;;;;;5053280;28;20033;-76
2022/03/21 01:33:31;;;;;;;0.17;0.17;;;10.10;99.90;;;;;;5052982;28;20021;-76
2022/03/21 01:35:57;;;;;;;0.00;0.00;;;10.00;99.90;;;;;;5048022;28;20024;-76
2022/03/21 01:38:23;;;;;;;0.20;0.20;;;10.00;99.90;;;;;;5049659;28;20036;-76
2022/03/21 01:40:48;;;;;;;0.10;0.10;;;9.90;99.90;;;;;;5052554;28;20025;-77
2022/03/21 01:43:14;;;;;;;0.00;0.00;;;9.80;99.90;;;;;;5052274;28;20466;-75
2022/03/21 01:45:40;;;;;;;0.00;0.00;;;9.80;99.90;;;;;;5052824;28;20021;-75
2022/03/21 01:48:07;;;;;;;0.00;0.00;;;9.80;99.90;;;;;;5052883;28;20029;-77
2022/03/21 01:50:33;;;;;;;1.38;1.27;;;9.80;99.90;;;;;;5055545;28;20484;-76
2022/03/21 01:55:44;;;;;;;0.00;0.00;;;9.80;99.90;;;;;;5056477;28;20027;-75
2022/03/21 01:58:15;;;;;;;0.30;0.20;;;9.90;99.90;;;;;;5056881;28;20017;-76
2022/03/21 02:00:44;;;;;;;0.00;0.00;;;9.80;99.90;;;;;;5056144;28;20063;-75
2022/03/21 02:03:09;;;;;;;0.00;0.00;;;9.90;99.90;;;;;;5056068;28;20064;-78
2022/03/21 02:05:38;;;;;;;0.00;0.00;;;9.90;99.90;;;;;;5056740;28;20053;-77
2022/03/21 02:08:04;;;;;;;0.00;0.00;;;9.90;99.90;;;;;;5056431;28;20029;-77
2022/03/21 02:10:30;;;;;;;0.00;0.00;;;9.90;99.90;;;;;;5055524;28;20024;-75
2022/03/21 02:12:56;;;;;;;0.40;0.10;;;9.90;99.90;;;;;;5055901;28;20060;-77
2022/03/21 02:15:22;;;;;;;0.00;0.00;;;9.90;99.90;;;;;;5056624;28;20392;-76
2022/03/21 02:17:51;;;;;;;0.03;0.03;;;9.90;99.90;;;;;;5055801;28;20025;-77
2022/03/21 02:20:18;;;;;;;0.15;0.15;;;9.80;99.90;;;;;;5056635;28;20021;-75
2022/03/21 02:23:22;;;;;;;0.00;0.00;;;9.70;99.90;;;;;;5056297;28;20060;-77
2022/03/21 02:25:48;;;;;;;;;;;9.70;99.90;;;;;;5056558;28;20021;-76
2022/03/21 02:28:16;;;;;;;0.20;0.10;;;9.50;99.90;;;;;;5056163;28;19904;-76
2022/03/21 02:30:47;;;;;;;0.00;0.00;;;9.50;99.90;;;;;;5056211;28;20036;-75
2022/03/21 02:33:15;;;;;;;0.10;0.10;;;9.30;99.90;;;;;;5055878;28;20099;-76
2022/03/21 02:35:44;;;;;;;0.00;0.00;;;9.30;99.90;;;;;;5058227;28;20395;-75
2022/03/21 02:38:12;;;;;;;0.00;0.00;;;9.30;99.90;;;;;;5056180;28;20025;-76
2022/03/21 02:40:37;;;;;;;0.00;0.00;;;9.20;99.90;;;;;;5055875;28;20380;-77
2022/03/21 02:43:03;;;;;;;0.20;0.10;;;9.20;99.90;;;;;;5055278;28;20037;-76
2022/03/21 02:45:29;;;;;;;0.03;0.03;;;9.10;99.90;;;;;;5054728;28;20434;-76
2022/03/21 02:47:55;;;;;;;0.65;0.13;;;9.10;99.90;;;;;;5054556;28;20017;-76
2022/03/21 02:50:34;;;;;;;0.00;0.00;;;9.00;99.90;;;;;;5054514;28;20036;-75
2022/03/21 02:53:01;;;;;;;0.00;0.00;;;8.90;99.90;;;;;;5053252;28;20032;-75
2022/03/21 02:55:27;;;;;;;0.00;0.00;;;8.90;99.90;;;;;;5054744;28;20492;-76
2022/03/21 02:57:52;;;;;;;0.55;0.55;;;8.90;99.90;;;;;;5054612;28;20091;-77
2022/03/21 03:00:18;;;;;;;0.10;0.10;;;8.90;99.90;;;;;;5053989;28;20033;-76
2022/03/21 03:02:44;;;;;;;2.70;0.65;;;8.90;99.90;;;;;;5053692;28;20024;-76
2022/03/21 03:05:09;;;;;;;0.00;0.00;;;8.90;99.90;;;;;;5054575;28;20024;-75
2022/03/21 03:07:35;;;;;;;0.00;0.00;;;8.90;99.90;;;;;;5054449;28;20025;-75
2022/03/21 03:10:01;;;;;;;0.10;0.10;;;8.90;99.90;;;;;;5053953;28;20029;-77
2022/03/21 03:12:27;;;;;;;0.00;0.00;;;8.90;99.90;;;;;;5053983;28;20103;-75
2022/03/21 03:14:52;;;;;;;0.00;0.00;;;8.80;99.90;;;;;;5043939;28;20030;-77
2022/03/21 03:17:18;;;;;;;0.10;0.10;;;8.80;99.90;;;;;;5033103;28;20022;-76
2022/03/21 03:19:46;;;;;;;0.00;0.00;;;8.80;99.90;;;;;;5034230;28;20442;-76
2022/03/21 03:22:13;;;;;;;0.10;0.10;;;8.70;99.90;;;;;;5034098;28;20113;-76
2022/03/21 03:24:40;;;;;;;0.52;0.20;;;8.70;99.90;;;;;;5033865;28;20064;-75
2022/03/21 03:27:06;;;;;;;0.08;0.08;;;8.60;99.90;;;;;;5034066;28;20167;-77
2022/03/21 03:29:31;;;;;;;0.10;0.10;;;8.60;99.90;;;;;;5033627;28;20100;-77
2022/03/21 03:32:00;;;;;;;0.75;0.35;;;8.50;99.90;;;;;;5034148;28;20029;-75
2022/03/21 03:34:26;;;;;;;0.00;0.00;;;8.50;99.90;;;;;;5034350;28;20361;-77
2022/03/21 03:36:52;;;;;;;0.28;0.25;;;8.50;99.90;;;;;;5037986;28;20022;-76
2022/03/21 03:39:18;;;;;;;0.00;0.00;;;8.40;99.90;;;;;;5054284;28;20495;-75
2022/03/21 03:41:44;;;;;;;0.00;0.00;;;8.40;99.90;;;;;;5053749;28;20415;-75
2022/03/21 03:44:10;;;;;;;0.00;0.00;;;8.40;99.90;;;;;;5013331;28;1183377;-75
2022/03/21 03:46:36;;;;;;;0.00;0.00;;;8.30;99.90;;;;;;5055144;28;20540;-77
2022/03/21 03:49:02;;;;;;;0.00;0.00;;;8.30;99.90;;;;;;5054619;28;20029;-75
2022/03/21 03:51:28;;;;;;;0.00;0.00;;;8.20;99.90;;;;;;5052982;28;20410;-77
2022/03/21 03:53:53;;;;;;;1.73;1.13;;;8.20;99.90;;;;;;5054679;28;20492;-75
2022/03/21 03:56:19;;;;;;;0.43;0.43;;;8.10;99.90;;;;;;5054545;28;20472;-75
2022/03/21 03:58:45;;;;;;;0.00;0.00;;;8.10;99.90;;;;;;5054393;28;20124;-75
2022/03/21 04:01:10;;;;;;;0.10;0.10;;;8.10;99.90;;;;;;5054575;28;20052;-77
2022/03/21 04:03:45;;;;;;;0.00;0.00;;;8.00;99.90;;;;;;5053452;28;20430;-75
2022/03/21 04:06:20;;;;;;;0.15;0.15;;;8.00;99.90;;;;;;5054375;28;20021;-75
2022/03/21 04:08:47;;;;;;;3.10;0.70;;;8.00;99.90;;;;;;5054225;28;20036;-77
2022/03/21 04:11:14;;;;;;;0.43;0.43;;;8.00;99.90;;;;;;5053885;28;20017;-77
2022/03/21 04:13:41;;;;;;;0.15;0.15;;;8.00;99.90;;;;;;5052545;28;20029;-76
2022/03/21 04:16:08;;;;;;;2.65;1.27;;;8.00;99.90;;;;;;5037537;28;20389;-77
2022/03/21 04:18:34;;;;;;;0.20;0.20;;;7.90;99.90;;;;;;5035675;28;20021;-77
2022/03/21 04:21:00;;;;;;;0.17;0.17;;;7.90;99.90;;;;;;5034165;28;20535;-75
2022/03/21 04:23:25;;;;;;;0.10;0.10;;;7.90;99.90;;;;;;5034154;28;20022;-77
2022/03/21 04:25:52;;;;;;;0.32;0.30;;;8.00;99.90;;;;;;5033846;28;20025;-75
2022/03/21 04:28:18;;;;;;;0.00;0.00;;;7.90;99.90;;;;;;5033830;28;20480;-77
2022/03/21 04:30:44;;;;;;;0.30;0.05;;;7.90;99.90;;;;;;5033922;28;20022;-77
2022/03/21 04:33:12;;;;;;;0.00;0.00;;;7.90;99.90;;;;;;5033694;28;20068;-77
2022/03/21 04:35:38;;;;;;;0.05;0.05;;;7.90;99.90;;;;;;5033874;28;20039;-76
2022/03/21 04:38:13;;;;;;;0.00;0.00;;;7.90;99.90;;;;;;5049611;28;20047;-77
2022/03/21 04:40:42;;;;;;;0.00;0.00;;;7.80;99.90;;;;;;5053638;28;20067;-75
2022/03/21 04:43:09;;;;;;;0.00;0.00;;;7.80;99.90;;;;;;5053730;28;20049;-77
2022/03/21 04:45:35;;;;;;;0.20;0.20;;;7.80;99.90;;;;;;5053800;28;20029;-76
2022/03/21 04:48:02;;;;;;;0.10;0.10;;;7.80;99.90;;;;;;5053531;28;20492;-77
2022/03/21 04:50:27;;;;;;;0.43;0.30;;;7.90;99.90;;;;;;5053215;28;20024;-77
2022/03/21 04:52:53;;;;;;;0.10;0.10;;;7.80;99.90;;;;;;5051885;28;20035;-77
2022/03/21 04:55:19;;;;;;;0.10;0.10;;;7.90;99.90;;;;;;5056458;28;20052;-75
2022/03/21 04:57:44;;;;;;;0.10;0.10;;;7.80;99.90;;;;;;5053565;28;20047;-77
2022/03/21 05:00:11;;;;;;;0.00;0.00;;;7.80;99.90;;;;;;5052054;28;20071;-77
2022/03/21 05:02:36;;;;;;;0.30;0.30;;;7.80;99.90;;;;;;5053202;28;20511;-76
2022/03/21 05:05:03;;;;;;;0.00;0.00;;;7.80;99.90;;;;;;5052617;28;20029;-77
2022/03/21 05:07:29;;;;;;;0.00;0.00;;;7.80;99.90;;;;;;5053338;28;20021;-76
2022/03/21 05:09:55;;;;;;;0.28;0.28;;;7.90;99.90;;;;;;5052802;28;20502;-75
2022/03/21 05:12:20;;;;;;;0.10;0.10;;;7.90;99.90;;;;;;5052466;28;20041;-77
2022/03/21 05:14:47;;;;;;;0.13;0.13;;;7.90;99.90;;;;;;5043898;28;20013;-77
2022/03/21 05:17:12;;;;;;;0.10;0.10;;;8.00;99.90;;;;;;5033379;28;20472;-77
2022/03/21 05:19:39;;;;;;;0.00;0.00;;;8.00;99.90;;;;;;5032881;28;20052;-76
2022/03/21 05:22:05;;;;;;;0.00;0.00;;;8.00;99.90;;;;;;5033569;28;20025;-75
2022/03/21 05:32:44;;;;;;;0.80;0.80;;;8.00;99.90;;;;;;5046167;28;20057;-77
2022/03/21 05:37:54;;;;;;;0.17;0.17;;;8.00;99.90;;;;;;5045875;28;20083;-76
2022/03/21 05:40:34;;;;;;;0.00;0.00;;;7.90;99.90;;;;;;5052964;28;20017;-75
2022/03/21 05:43:00;;;;;;;0.00;0.00;;;7.90;99.90;;;;;;5052835;28;20049;-76
2022/03/21 05:45:26;;;;;;;0.08;0.08;;;7.80;99.90;;;;;;5051558;28;20504;-75
2022/03/21 05:50:37;;;;;;;0.43;0.43;;;7.70;99.90;;;;;;5052765;28;20063;-76
2022/03/21 05:53:04;;;;;;;0.00;0.00;;;7.60;99.90;;;;;;5041059;28;20060;-75
2022/03/21 05:55:30;;;;;;;0.00;0.00;;;7.50;99.90;;;;;;5032899;28;20018;-75
2022/03/21 05:57:59;;;;;;;0.20;0.20;;;7.50;99.90;;;;;;5039826;28;20381;-75
2022/03/21 06:00:26;;;;;;;1.30;1.10;;;7.40;99.90;;;;;;5052437;28;20096;-75
2022/03/21 06:02:53;;;;;;;0.40;0.40;;;7.30;99.90;;;;;;5052516;28;20492;-76
2022/03/21 06:05:20;;;;;;;0.10;0.10;;;7.30;99.90;;;;;;5052001;28;20103;-76
2022/03/21 06:07:47;;;;;;;0.00;0.00;;;7.30;99.90;;;;;;5052234;28;20111;-76
2022/03/21 06:10:13;;;;;;;0.10;0.10;;;7.20;99.90;;;;;;5052156;28;20025;-77
2022/03/21 06:12:40;;;;;;;0.05;0.05;;;7.20;99.90;;;;;;5052358;28;20116;-76
2022/03/21 06:15:07;;;;;;;0.00;0.00;;;7.20;99.90;;;;;;5052388;28;20115;-75
2022/03/21 06:17:40;;;;;;;0.00;0.00;;;7.20;99.90;;;;;;5052183;28;20017;-76
2022/03/21 06:20:07;;;;;;;0.00;0.00;;;7.30;99.90;;;;;;5052434;28;20434;-75
2022/03/21 06:22:33;;;;;;;0.00;0.00;;;7.30;99.90;;;;;;5052560;28;20055;-75
2022/03/21 06:24:59;;;;;;;6.63;0.57;;;7.40;99.90;;;;;;5051300;28;20048;-75
2022/03/21 06:27:24;;;;;;;0.10;0.10;;;7.40;99.90;;;;;;5052203;28;20075;-75
2022/03/21 06:29:50;;;;;;;0.50;0.50;;;7.50;99.90;;;;;;5051941;28;20025;-75
2022/03/21 06:32:16;;;;;;;0.10;0.10;;;7.60;99.90;;;;;;5049274;28;20403;-77
2022/03/21 06:34:41;;;;;;;0.10;0.10;;;7.70;99.90;;;;;;5051662;28;20021;-77
2022/03/21 06:37:08;;;;;;;0.00;0.00;;;7.80;99.90;;;;;;5053657;28;20717;-75
2022/03/21 06:39:34;;;;;;;0.30;0.30;;;7.80;99.90;;;;;;5055460;28;20043;-76
2022/03/21 06:41:59;;;;;;;0.13;0.13;;;7.90;99.90;;;;;;5053169;28;20144;-75
2022/03/21 06:44:28;;;;;;;0.28;0.28;;;7.90;99.90;;;;;;5054252;28;20041;-75
2022/03/21 06:46:56;;;;;;;0.03;0.03;;;8.00;99.90;;;;;;5055590;28;20025;-75
2022/03/21 06:49:26;;;;;;;0.15;0.15;;;8.00;99.90;;;;;;5054827;28;20031;-75
2022/03/21 06:51:52;;;;;;;0.00;0.00;;;8.00;99.90;;;;;;5053084;28;20498;-75
2022/03/21 06:54:17;;;;;;;0.10;0.10;;;8.10;99.90;;;;;;5041191;28;20025;-76
2022/03/21 06:56:43;;;;;;;0.00;0.00;;;8.20;99.90;;;;;;5035126;28;20108;-76
2022/03/21 06:59:08;;;;;;;0.08;0.08;;;8.20;99.90;;;;;;5047770;28;20108;-76
2022/03/21 07:01:36;;;;;;;0.57;0.57;;;8.30;99.90;;;;;;5052625;28;20395;-76
2022/03/21 07:04:01;;;;;;;0.05;0.05;;;8.40;99.90;;;;;;5054843;28;20545;-77
2022/03/21 07:06:27;;;;;;;0.00;0.00;;;8.50;99.90;;;;;;5052122;28;20028;-76
2022/03/21 07:08:53;;;;;;;0.25;0.25;;;8.60;99.90;;;;;;5053009;28;20021;-76
2022/03/21 07:11:20;;;;;;;0.00;0.00;;;8.60;99.90;;;;;;5052385;28;20117;-76
2022/03/21 07:13:49;;;;;;;0.00;0.00;;;8.70;99.90;;;;;;5053035;28;20434;-76
2022/03/21 07:16:16;;;;;;;3.00;0.70;;;8.80;99.90;;;;;;5053625;28;20021;-76
2022/03/21 07:18:42;;;;;;;0.00;0.00;;;8.90;99.90;;;;;;5053229;28;20013;-76
2022/03/21 07:21:08;;;;;;;0.20;0.20;;;9.00;99.90;;;;;;5053386;28;20153;-76
2022/03/21 07:23:37;;;;;;;0.00;0.00;;;9.10;99.90;;;;;;5051503;28;20520;-76
2022/03/21 07:26:03;;;;;;;0.00;0.00;;;9.20;99.90;;;;;;5052917;28;20029;-76
2022/03/21 07:28:29;;;;;;;0.10;0.10;;;9.30;99.90;;;;;;5053294;28;20078;-76
2022/03/21 07:30:54;;;;;;;0.20;0.03;;;9.40;99.90;;;;;;5045584;28;20029;-76
2022/03/21 07:33:20;;;;;;;0.45;0.08;;;9.60;99.90;;;;;;5047493;28;20047;-76
2022/03/21 07:35:46;;;;;;;0.10;0.10;;;9.70;99.90;;;;;;5049106;28;20033;-75
2022/03/21 07:38:13;;;;;;;17.13;0.82;;;10.00;99.90;;;;;;5049680;28;20025;-76
2022/03/21 07:40:39;;;;;;;1.75;0.85;;;10.30;99.90;;;;;;5057088;28;20021;-76
2022/03/21 07:43:05;;;;;;;0.00;0.00;;;11.10;99.90;;;;;;5062872;28;20049;-75
2022/03/21 07:48:15;;;;;;;0.22;0.22;;;12.50;99.90;;;;;;5049104;28;20043;-75
2022/03/21 07:50:41;;;;;;;1.30;0.20;;;11.90;99.90;;;;;;5049528;28;20033;-75
2022/03/21 07:53:07;;;;;;;0.03;0.03;;;11.60;99.90;;;;;;5044134;28;20028;-75
2022/03/21 07:55:33;;;;;;;0.15;0.15;;;11.50;99.90;;;;;;5046217;28;20071;-75
2022/03/21 07:58:00;;;;;;;0.30;0.28;;;11.60;99.90;;;;;;5051619;28;20021;-75
2022/03/21 08:00:27;;;;;;;0.10;0.10;;;11.70;99.90;;;;;;5050996;28;20027;-76
2022/03/21 08:02:53;;;;;;;1.25;1.15;;;12.00;99.90;;;;;;5049252;28;20029;-76
2022/03/21 08:05:19;;;;;;;0.73;0.70;;;12.20;99.90;;;;;;5045281;28;20039;-76
2022/03/21 08:07:45;;;;;;;0.35;0.20;;;12.50;99.90;;;;;;5050592;28;20031;-76
2022/03/21 08:10:11;;;;;;;0.70;0.32;;;13.20;99.90;;;;;;5041000;28;20485;-75
2022/03/21 08:12:42;;;;;;;1.55;1.30;;;14.90;99.90;;;;;;5040758;28;20472;-75
2022/03/21 08:15:11;;;;;;;0.43;0.10;;;16.20;99.90;;;;;;5046776;28;20029;-76
2022/03/21 08:17:51;;;;;;;0.15;0.15;;;17.10;99.90;;;;;;5051013;28;20476;-76
2022/03/21 08:20:21;;;;;;;0.60;0.30;;;17.70;99.90;;;;;;5037162;28;20451;-76
2022/03/21 08:22:47;;;;;;;0.57;0.47;;;18.00;99.90;;;;;;5050641;28;20457;-77
2022/03/21 08:25:15;;;;;;;0.22;0.22;;;18.60;99.90;;;;;;5048224;28;20040;-76
2022/03/21 08:27:44;;;;;;;1.23;1.05;;;18.30;99.90;;;;;;5046017;28;20428;-76
2022/03/21 08:30:15;;;;;;;2.05;0.30;;;17.50;99.90;;;;;;5047260;28;20475;-76
2022/03/21 08:32:45;;;;;;;1.35;0.30;;;16.60;99.90;;;;;;5050535;28;20021;-76
2022/03/21 08:35:11;;;;;;;0.52;0.35;;;16.00;99.90;;;;;;5047733;28;20036;-75
2022/03/21 08:37:37;;;;;;;2.35;0.30;;;16.30;99.90;;;;;;5049166;28;20021;-76
2022/03/21 08:40:04;;;;;;;1.38;0.40;;;17.40;99.90;;;;;;5048950;28;20052;-76
2022/03/21 08:42:29;;;;;;;6.03;0.68;;;18.50;99.90;;;;;;5045491;28;20132;-77
2022/03/21 08:44:56;;;;;;;0.65;0.28;;;19.20;99.90;;;;;;5043976;28;20120;-77
2022/03/21 08:47:23;;;;;;;3.55;0.38;;;19.90;99.90;;;;;;5047706;28;20029;-77
2022/03/21 08:49:49;;;;;;;0.57;0.35;;;19.70;99.90;;;;;;5046413;28;20025;-76
2022/03/21 08:52:15;;;;;;;0.20;0.20;;;18.20;99.90;;;;;;5046945;28;20113;-77
2022/03/21 08:54:41;;;;;;;0.10;0.10;;;17.10;99.90;;;;;;5048345;28;20025;-76
2022/03/21 08:57:07;;;;;;;0.10;0.08;;;16.10;99.90;;;;;;5048736;28;20028;-76
2022/03/21 08:59:33;;;;;;;0.00;0.00;;;15.20;99.90;;;;;;5048065;28;20029;-76
2022/03/21 09:01:59;;;;;;;0.32;0.20;;;14.60;99.90;;;;;;5047670;28;20399;-75
2022/03/21 09:04:25;;;;;;;0.57;0.20;;;14.10;99.90;;;;;;5049088;28;20024;-75
2022/03/21 09:06:50;;;;;;;1.17;0.45;;;14.00;99.90;;;;;;5047307;28;20056;-74
2022/03/21 09:09:18;;;;;;;0.00;0.00;;;13.70;99.90;;;;;;5047109;28;20029;-76
2022/03/21 09:11:44;;;;;;;0.20;0.20;;;13.70;99.90;;;;;;5045637;28;20059;-75
2022/03/21 09:14:10;;;;;;;0.00;0.00;;;13.70;99.90;;;;;;5049009;28;20012;-75
2022/03/21 09:16:38;;;;;;;0.65;0.13;;;13.80;99.90;;;;;;5050201;28;20025;-75
2022/03/21 09:19:04;;;;;;;5.47;0.65;;;14.70;99.90;;;;;;5048831;28;20025;-75
2022/03/21 09:21:29;;;;;;;0.68;0.38;;;16.20;99.90;;;;;;5050363;28;20033;-75
2022/03/21 09:23:55;;;;;;;0.28;0.28;;;18.30;99.90;;;;;;5049801;28;20060;-78
2022/03/21 09:26:21;;;;;;;0.38;0.38;;;19.70;99.90;;;;;;5049864;28;20033;-78
2022/03/21 09:28:48;;;;;;;0.38;0.38;;;20.70;99.90;;;;;;5050322;28;20055;-76
2022/03/21 09:31:14;;;;;;;0.85;0.28;;;20.90;99.70;;;;;;5049935;28;20032;-77
2022/03/21 09:33:41;;;;;;;0.08;0.08;;;20.60;99.90;;;;;;5050501;28;20088;-75
2022/03/21 09:36:08;;;;;;;0.47;0.47;;;20.70;99.60;;;;;;5050693;28;20511;-77
2022/03/21 09:38:34;;;;;;;0.43;0.20;;;20.30;99.90;;;;;;5050456;28;20032;-75
2022/03/21 09:41:01;;;;;;;0.52;0.22;;;20.40;99.90;;;;;;5048860;28;20460;-77
2022/03/21 09:43:29;;;;;;;0.10;0.10;;;19.80;99.90;;;;;;5047796;28;20462;-78
2022/03/21 09:45:58;;;;;;;0.43;0.43;;;20.20;99.90;;;;;;5044138;28;20048;-76
2022/03/21 09:48:26;;;;;;;0.30;0.22;;;20.70;99.90;;;;;;5049717;28;20162;-75
2022/03/21 09:50:52;;;;;;;4.90;0.65;;;20.90;99.90;;;;;;5048196;28;20056;-77
2022/03/21 09:53:19;;;;;;;0.10;0.10;;;20.40;99.90;;;;;;5049732;28;20061;-75
2022/03/21 09:55:46;;;;;;;0.25;0.17;;;19.50;99.90;;;;;;5050427;28;20030;-77
2022/03/21 09:58:12;;;;;;;0.45;0.40;;;19.00;99.90;;;;;;5049663;28;20024;-75
2022/03/21 10:00:42;;;;;;;0.15;0.15;;;18.10;99.90;;;;;;5049696;28;20515;-75
2022/03/21 10:03:08;;;;;;;0.40;0.40;;;18.00;99.90;;;;;;5051944;28;20075;-77
2022/03/21 10:05:43;;;;;;;0.00;0.00;;;18.30;99.90;;;;;;5064093;28;20049;-75
2022/03/21 10:08:11;;;;;;;0.13;0.13;;;17.70;99.90;;;;;;5074257;28;20017;-75
2022/03/21 10:10:36;;;;;;;0.00;0.00;;;16.80;99.90;;;;;;5050513;28;20029;-75
2022/03/21 10:13:03;;;;;;;0.00;0.00;;;17.30;99.90;;;;;;5051729;28;20397;-75
2022/03/21 10:15:29;;;;;;;0.52;0.47;;;17.90;99.90;;;;;;5053921;28;20028;-74
2022/03/21 10:18:08;;;;;;;2.63;0.20;;;18.00;99.90;;;;;;5051453;28;20431;-73
2022/03/21 10:20:36;;;;;;;0.10;0.10;;;17.30;99.90;;;;;;5042803;28;20063;-74
2022/03/21 10:23:23;;;;;;;0.20;0.20;;;17.30;99.90;;;;;;5040942;28;20052;-75
2022/03/21 10:25:49;;;;;;;0.50;0.50;;;17.00;99.90;;;;;;5051297;28;20549;-74
2022/03/21 10:28:35;;;;;;;0.00;0.00;;;16.70;99.90;;;;;;5052504;28;20037;-76
2022/03/21 10:31:02;;;;;;;0.00;0.00;;;16.60;99.90;;;;;;5051466;28;20438;-74
2022/03/21 10:33:28;;;;;;;3.20;0.17;;;16.60;99.90;;;;;;5053497;28;20420;-74
2022/03/21 10:35:54;;;;;;;0.35;0.32;;;16.90;99.90;;;;;;5053670;28;20028;-75
2022/03/21 10:38:33;;;;;;;0.35;0.35;;;17.10;99.90;;;;;;5052537;28;20402;-74
2022/03/21 10:41:06;;;;;;;0.50;0.32;;;16.90;99.90;;;;;;5051861;28;20032;-75
2022/03/21 10:43:32;;;;;;;0.77;0.20;;;17.20;99.90;;;;;;5037047;28;20045;-74
2022/03/21 10:45:58;;;;;;;0.73;0.50;;;17.50;99.90;;;;;;5053688;28;20106;-75
2022/03/21 10:48:31;;;;;;;0.00;0.00;;;17.50;99.90;;;;;;5052988;28;20499;-75
2022/03/21 10:51:00;;;;;;;0.10;0.10;;;17.30;99.90;;;;;;5049983;28;20032;-76
2022/03/21 10:53:36;;;;;;;3.53;0.10;;;17.00;99.90;;;;;;5053314;28;20048;-79
2022/03/21 10:56:12;;;;;;;0.05;0.05;;;17.10;99.90;;;;;;5052055;28;20083;-77
2022/03/21 10:58:47;;;;;;;0.08;0.08;;;17.20;99.90;;;;;;5053269;28;20021;-78
2022/03/21 11:01:27;;;;;;;0.13;0.10;;;17.00;99.90;;;;;;5053088;28;20119;-74
2022/03/21 11:03:57;;;;;;;0.08;0.08;;;17.10;99.90;;;;;;5051923;28;20025;-78
2022/03/21 11:06:23;;;;;;;0.22;0.10;;;16.90;99.90;;;;;;5052693;28;20033;-78
2022/03/21 11:08:52;;;;;;;0.10;0.00;;;16.80;99.90;;;;;;5051931;28;20104;-77
2022/03/21 11:11:18;;;;;;;0.00;0.00;;;16.90;99.90;;;;;;5034242;28;20039;-75
2022/03/21 11:13:45;;;;;;;0.30;0.10;;;17.00;99.90;;;;;;5048088;28;20032;-77
2022/03/21 11:16:18;;;;;;;0.00;0.00;;;17.20;99.90;;;;;;5051718;28;20384;-77
2022/03/21 11:18:48;;;;;;;0.65;0.10;;;17.20;99.90;;;;;;5041133;28;20720;-77
2022/03/21 11:21:15;;;;;;;0.10;0.10;;;17.30;99.90;;;;;;5044561;28;20039;-77
2022/03/21 11:23:41;;;;;;;0.45;0.20;;;17.20;99.90;;;;;;5050327;28;20476;-77
2022/03/21 11:26:31;;;;;;;0.10;0.10;;;17.10;99.90;;;;;;5051502;28;20515;-77
2022/03/21 11:29:30;;;;;;;2.05;0.50;;;17.20;99.90;;;;;;5043159;28;20033;-75
2022/03/21 11:32:17;;;;;;;0.00;0.00;;;17.10;99.90;;;;;;5050576;28;20124;-76
2022/03/21 11:35:06;;;;;;;0.52;0.52;;;17.00;99.90;;;;;;5038245;28;20041;-77
2022/03/21 11:37:33;;;;;;;0.10;0.10;;;16.80;99.90;;;;;;5042968;28;20013;-75
2022/03/21 11:40:32;;;;;;;0.00;0.00;;;16.80;99.90;;;;;;5037734;28;20516;-75
2022/03/21 11:43:19;;;;;;;0.22;0.22;;;17.00;99.90;;;;;;5048632;28;20132;-76
2022/03/21 11:45:55;;;;;;;0.05;0.05;;;17.60;99.90;;;;;;5043346;28;20079;-77
2022/03/21 11:48:24;;;;;;;0.00;0.00;;;17.80;99.90;;;;;;5052963;28;20035;-77
2022/03/21 11:50:50;;;;;;;0.10;0.10;;;18.00;99.90;;;;;;5050521;28;20044;-75
2022/03/21 11:53:26;;;;;;;2.65;0.20;;;18.30;99.90;;;;;;5052160;28;20103;-76
2022/03/21 11:55:51;;;;;;;0.00;0.00;;;18.50;99.90;;;;;;5051156;28;20021;-75
2022/03/21 11:58:23;;;;;;;0.40;0.40;;;18.60;99.90;;;;;;5051529;28;20484;-77
2022/03/21 12:01:12;;;;;;;0.05;0.05;;;19.00;99.90;;;;;;5047638;28;20033;-77
2022/03/21 12:03:41;;;;;;;0.10;0.10;;;19.40;99.90;;;;;;5049554;28;20127;-76
2022/03/21 12:06:32;;;;;;;0.20;0.10;;;19.40;99.90;;;;;;5051732;28;20029;-76
2022/03/21 12:09:08;;;;;;;1.92;0.40;;;19.30;99.90;;;;;;5050364;28;20037;-77
2022/03/21 12:11:46;;;;;;;0.10;0.10;;;19.30;99.90;;;;;;5049847;28;20036;-78
2022/03/21 12:14:21;;;;;;;0.13;0.10;;;19.50;99.90;;;;;;5048375;28;20028;-78
2022/03/21 12:17:02;;;;;;;0.00;0.00;;;19.70;99.90;;;;;;5042220;28;20032;-77
2022/03/21 12:19:50;;;;;;;0.00;0.00;;;19.50;99.90;;;;;;5047718;28;20032;-77
2022/03/21 12:22:34;;;;;;;0.20;0.05;;;19.60;99.90;;;;;;5049801;28;20394;-75
2022/03/21 12:25:01;;;;;;;0.60;0.60;;;19.60;99.90;;;;;;5049514;28;20418;-77
2022/03/21 12:27:39;;;;;;;0.10;0.10;;;19.30;99.90;;;;;;5050691;28;20031;-77
2022/03/21 12:30:23;;;;;;;0.17;0.17;;;19.20;99.90;;;;;;5050852;28;20034;-77
2022/03/21 12:33:04;;;;;;;0.03;0.03;;;18.90;99.90;;;;;;5049816;28;20017;-77
2022/03/21 12:35:32;;;;;;;0.00;0.00;;;18.60;99.90;;;;;;5045783;28;20029;-76
2022/03/21 12:38:03;;;;;;;0.10;0.10;;;18.70;99.90;;;;;;5049062;28;20036;-77
2022/03/21 12:40:29;;;;;;;0.40;0.17;;;18.40;99.90;;;;;;5048913;28;20036;-77
2022/03/21 12:42:59;;;;;;;0.30;0.17;;;18.50;99.90;;;;;;5046023;28;20048;-76
2022/03/21 12:45:25;;;;;;;1.10;0.13;;;18.70;99.90;;;;;;5051167;28;20099;-79
2022/03/21 12:47:52;;;;;;;0.08;0.08;;;18.60;99.90;;;;;;5048632;28;20064;-76
2022/03/21 12:50:27;;;;;;;0.00;0.00;;;18.60;99.90;;;;;;5037506;28;20028;-78
2022/03/21 12:53:10;;;;;;;0.13;0.13;;;18.80;99.90;;;;;;5050262;28;20574;-77
2022/03/21 12:55:36;;;;;;;;;;;19.20;99.90;;;;;;5051773;28;20067;-76
2022/03/21 12:58:06;;;;;;;1.67;0.30;;;19.20;99.90;;;;;;5051519;28;19962;-75
2022/03/21 13:00:34;;;;;;;0.00;0.00;;;19.20;99.90;;;;;;5050457;28;20021;-77
2022/03/21 13:03:08;;;;;;;1.35;0.10;;;19.20;99.90;;;;;;5039278;28;20419;-77
2022/03/21 13:11:38;;;;;;;0.10;0.10;;;19.60;99.90;;;;;;5035682;28;20060;-78
2022/03/21 13:14:13;;;;;;;0.03;0.03;;;19.40;99.90;;;;;;5048383;28;20036;-76
2022/03/21 13:16:49;;;;;;;0.05;0.03;;;19.30;99.90;;;;;;5050938;28;20400;-78
2022/03/21 13:19:20;;;;;;;0.10;0.10;;;19.40;99.90;;;;;;5047784;28;20051;-78
2022/03/21 13:21:48;;;;;;;0.25;0.10;;;19.80;99.90;;;;;;5050404;28;20043;-78
2022/03/21 13:24:14;;;;;;;0.00;0.00;;;20.00;99.90;;;;;;5049137;28;20036;-76